Time;durP1;ratioP1;P1;durP2;ratioP2;P2;SDS_P1;SDS_P2;PMS_P1;PMS_P2;Temp;Humidity;BMP_temperature;BMP_pressure;BME280_temperature;BME280_humidity;BME280_pressure;Samples;Min_cycle;Max_cycle;Signal;HPM_P1;HPM_P2
2022/09/20 00:00:46;;;;;;;14.63;2.13;;;;;;;;;;5048120;28;20059;-73
2022/09/20 00:03:13;;;;;;;12.52;1.90;;;;;;;;;;5050839;28;20454;-73
2022/09/20 00:05:47;;;;;;;12.05;2.15;;;;;;;;;;5391976;22;20056;-95
2022/09/20 00:08:14;;;;;;;11.57;2.08;;;;;;;;;;5094110;23;20042;-81
2022/09/20 00:10:41;;;;;;;14.23;2.08;;;;;;;;;;5004504;28;20054;-81
2022/09/20 00:13:08;;;;;;;14.55;1.98;;;;;;;;;;5010228;28;20088;-81
2022/09/20 00:15:39;;;;;;;11.82;1.83;;;;;;;;;;5009898;28;20121;-81
2022/09/20 00:18:05;;;;;;;16.52;2.17;;;;;;;;;;5005021;28;20053;-83
2022/09/20 00:20:31;;;;;;;8.65;1.80;;;;;;;;;;5006507;28;20046;-84
2022/09/20 00:22:57;;;;;;;13.25;2.10;;;;;;;;;;5002833;28;20667;-83
2022/09/20 00:25:23;;;;;;;10.43;1.70;;;;;;;;;;5004325;28;20050;-83
2022/09/20 00:27:49;;;;;;;16.35;2.10;;;;;;;;;;5022106;28;20498;-83
2022/09/20 00:30:15;;;;;;;12.95;2.30;;;;;;;;;;5005171;28;20133;-83
2022/09/20 00:32:42;;;;;;;11.70;1.90;;;;;;;;;;5007284;28;20052;-83
2022/09/20 00:35:09;;;;;;;11.57;1.70;;;;;;;;;;5005387;28;20053;-83
2022/09/20 00:37:40;;;;;;;12.65;1.88;;;;;;;;;;5006299;28;20096;-83
2022/09/20 00:40:07;;;;;;;12.02;1.98;;;;;;;;;;5005817;28;20050;-83
2022/09/20 00:42:34;;;;;;;9.10;1.92;;;;;;;;;;5003543;28;20146;-83
2022/09/20 00:45:01;;;;;;;13.68;1.85;;;;;;;;;;5003906;28;20038;-83
2022/09/20 00:47:29;;;;;;;15.60;1.95;;;;;;;;;;5004746;28;20056;-83
2022/09/20 00:50:22;;;;;;;11.70;2.00;;;;;;;;;;5007067;28;20133;-83
2022/09/20 00:52:49;;;;;;;11.70;1.85;;;;;;;;;;5004392;28;20414;-83
2022/09/20 00:55:16;;;;;;;12.95;2.10;;;;;;;;;;5011492;28;20092;-83
2022/09/20 00:57:42;;;;;;;11.25;1.63;;;;;;;;;;5011478;28;20042;-83
2022/09/20 01:00:10;;;;;;;15.85;1.83;;;;;;;;;;5010915;28;20042;-83
2022/09/20 01:02:38;;;;;;;11.05;1.90;;;;;;;;;;5007116;28;20081;-83
2022/09/20 01:05:04;;;;;;;10.68;1.60;;;;;;;;;;5019151;28;20042;-83
2022/09/20 01:07:33;;;;;;;13.02;1.70;;;;;;;;;;5011708;28;20057;-83
2022/09/20 01:09:59;;;;;;;14.90;2.10;;;;;;;;;;5013312;28;20041;-83
2022/09/20 01:12:27;;;;;;;10.68;2.20;;;;;;;;;;5016242;28;20125;-83
2022/09/20 01:14:53;;;;;;;7.63;1.45;;;;;;;;;;5008985;28;20049;-82
2022/09/20 01:17:22;;;;;;;12.25;1.58;;;;;;;;;;5005693;28;20052;-81
2022/09/20 01:20:00;;;;;;;13.32;2.00;;;;;;;;;;5040154;28;20054;-82
2022/09/20 01:22:29;;;;;;;9.07;1.38;;;;;;;;;;5009239;28;20492;-82
2022/09/20 01:25:04;;;;;;;14.30;2.13;;;;;;;;;;5015713;28;20145;-81
2022/09/20 01:27:32;;;;;;;12.77;1.80;;;;;;;;;;5012170;28;20049;-82
2022/09/20 01:30:03;;;;;;;11.25;2.15;;;;;;;;;;5013534;28;20041;-82
2022/09/20 01:32:40;;;;;;;13.15;2.22;;;;;;;;;;5016671;28;20100;-82
2022/09/20 01:35:07;;;;;;;13.80;1.92;;;;;;;;;;5015367;28;20391;-82
2022/09/20 01:37:42;;;;;;;9.70;1.80;;;;;;;;;;5014571;28;20068;-82
2022/09/20 01:40:09;;;;;;;13.25;2.25;;;;;;;;;;5012692;28;20064;-82
2022/09/20 01:42:40;;;;;;;10.73;1.90;;;;;;;;;;5014543;28;20111;-82
2022/09/20 01:45:09;;;;;;;14.20;2.45;;;;;;;;;;5004631;28;20435;-82
2022/09/20 01:47:51;;;;;;;12.57;1.88;;;;;;;;;;5015661;28;20050;-82
2022/09/20 01:50:17;;;;;;;;;;;;;;;;;;5015928;28;20050;-82
2022/09/20 01:52:49;;;;;;;13.50;1.80;;;;;;;;;;5013459;28;19956;-82
2022/09/20 01:55:33;;;;;;;13.00;2.13;;;;;;;;;;5002036;28;20033;-82
2022/09/20 01:58:18;;;;;;;18.80;2.45;;;;;;;;;;5014401;28;20037;-82
2022/09/20 02:01:04;;;;;;;13.00;2.17;;;;;;;;;;5003440;28;20057;-82
2022/09/20 02:03:30;;;;;;;11.32;1.98;;;;;;;;;;5014389;28;20447;-82
2022/09/20 02:06:15;;;;;;;12.77;2.13;;;;;;;;;;5013402;28;20665;-81
2022/09/20 02:08:53;;;;;;;15.00;1.85;;;;;;;;;;5014382;28;20073;-82
2022/09/20 02:11:21;;;;;;;11.85;2.17;;;;;;;;;;5008014;28;20173;-82
2022/09/20 02:13:57;;;;;;;13.45;1.88;;;;;;;;;;5015894;28;20404;-81
2022/09/20 02:16:40;;;;;;;11.00;2.03;;;;;;;;;;5011533;28;20053;-81
2022/09/20 02:19:20;;;;;;;15.63;1.83;;;;;;;;;;5006513;28;20046;-82
2022/09/20 02:21:52;;;;;;;12.48;1.75;;;;;;;;;;5018296;28;20446;-82
2022/09/20 02:24:37;;;;;;;10.10;1.92;;;;;;;;;;5015196;28;20125;-82
2022/09/20 02:27:21;;;;;;;14.75;2.42;;;;;;;;;;4997016;28;20097;-82
2022/09/20 02:29:56;;;;;;;9.15;2.17;;;;;;;;;;5011823;28;20169;-82
2022/09/20 02:32:29;;;;;;;12.73;2.10;;;;;;;;;;5013850;28;20049;-82
2022/09/20 02:35:18;;;;;;;15.05;2.00;;;;;;;;;;5012274;28;20424;-82
2022/09/20 02:37:47;;;;;;;11.68;1.83;;;;;;;;;;5006824;28;20395;-82
2022/09/20 02:40:36;;;;;;;9.73;1.60;;;;;;;;;;5015334;28;20038;-82
2022/09/20 02:43:05;;;;;;;11.02;2.00;;;;;;;;;;5014277;28;20064;-82
2022/09/20 02:45:36;;;;;;;13.32;1.75;;;;;;;;;;5012062;28;20047;-82
2022/09/20 02:48:05;;;;;;;9.20;1.75;;;;;;;;;;5008007;28;20492;-82
2022/09/20 02:50:34;;;;;;;12.35;1.90;;;;;;;;;;5017802;28;20061;-81
2022/09/20 02:53:05;;;;;;;9.18;1.55;;;;;;;;;;5010144;28;20070;-81
2022/09/20 02:55:44;;;;;;;10.82;1.85;;;;;;;;;;5004760;28;20538;-82
2022/09/20 02:58:13;;;;;;;9.38;1.63;;;;;;;;;;5012329;28;20069;-82
2022/09/20 03:00:58;;;;;;;11.90;2.10;;;;;;;;;;5014686;28;20037;-82
2022/09/20 03:03:49;;;;;;;15.80;1.90;;;;;;;;;;5012943;28;20050;-82
2022/09/20 03:06:30;;;;;;;12.10;1.70;;;;;;;;;;5013183;28;20046;-82
2022/09/20 03:09:16;;;;;;;11.95;1.73;;;;;;;;;;5012833;28;20129;-82
2022/09/20 03:11:54;;;;;;;9.93;1.83;;;;;;;;;;5045882;28;20128;-82
2022/09/20 03:14:24;;;;;;;9.15;1.60;;;;;;;;;;5009531;28;20034;-82
2022/09/20 03:16:50;;;;;;;14.90;2.33;;;;;;;;;;5002458;28;20048;-82
2022/09/20 03:19:34;;;;;;;13.40;1.77;;;;;;;;;;5009413;28;20049;-82
2022/09/20 03:22:09;;;;;;;11.77;1.95;;;;;;;;;;5013461;28;20073;-82
2022/09/20 03:24:39;;;;;;;10.57;1.50;;;;;;;;;;5010746;28;20072;-82
2022/09/20 03:27:10;;;;;;;13.55;2.35;;;;;;;;;;4995859;28;20450;-82
2022/09/20 03:29:50;;;;;;;11.60;1.70;;;;;;;;;;5007617;28;20049;-82
2022/09/20 03:32:31;;;;;;;13.02;1.60;;;;;;;;;;5004888;28;20376;-82
2022/09/20 03:34:57;;;;;;;10.23;1.70;;;;;;;;;;5012979;28;20053;-82
2022/09/20 03:37:32;;;;;;;10.30;1.50;;;;;;;;;;5013632;28;20492;-82
2022/09/20 03:40:21;;;;;;;13.75;1.70;;;;;;;;;;5009282;28;20057;-82
2022/09/20 03:42:53;;;;;;;11.68;1.52;;;;;;;;;;4999806;28;20042;-82
2022/09/20 03:45:29;;;;;;;12.13;1.92;;;;;;;;;;5012827;28;20188;-82
2022/09/20 03:48:08;;;;;;;10.40;1.77;;;;;;;;;;5010965;28;20042;-82
2022/09/20 03:51:00;;;;;;;13.25;1.70;;;;;;;;;;5013682;28;20045;-82
2022/09/20 03:53:45;;;;;;;9.77;1.65;;;;;;;;;;5007826;28;20154;-82
2022/09/20 03:56:30;;;;;;;12.57;1.80;;;;;;;;;;5000526;28;20093;-82
2022/09/20 03:59:02;;;;;;;12.07;1.75;;;;;;;;;;5005950;28;20046;-82
2022/09/20 04:01:37;;;;;;;16.35;2.00;;;;;;;;;;5009796;28;20451;-82
2022/09/20 04:04:03;;;;;;;8.48;1.80;;;;;;;;;;5008674;28;20444;-82
2022/09/20 04:06:43;;;;;;;13.15;1.95;;;;;;;;;;5009481;28;20408;-82
2022/09/20 04:09:28;;;;;;;10.93;2.03;;;;;;;;;;5013223;28;20052;-82
2022/09/20 04:12:21;;;;;;;13.68;1.67;;;;;;;;;;5013527;28;20049;-82
2022/09/20 04:14:52;;;;;;;9.30;1.70;;;;;;;;;;5010303;28;20052;-82
2022/09/20 04:17:18;;;;;;;;;;;;;;;;;;5003982;28;20049;-82
2022/09/20 04:20:01;;;;;;;11.68;1.90;;;;;;;;;;5009596;28;19952;-82
2022/09/20 04:22:28;;;;;;;11.73;2.08;;;;;;;;;;5013968;28;20128;-82
2022/09/20 04:25:00;;;;;;;8.88;1.80;;;;;;;;;;4999836;28;20404;-81
2022/09/20 04:27:26;;;;;;;9.50;1.60;;;;;;;;;;5007949;28;20176;-82
2022/09/20 04:30:04;;;;;;;8.45;1.70;;;;;;;;;;5007486;28;20113;-82
2022/09/20 04:32:35;;;;;;;15.00;2.05;;;;;;;;;;5011148;28;20073;-82
2022/09/20 04:37:51;;;;;;;7.72;1.50;;;;;;;;;;5012012;28;20104;-82
2022/09/20 04:40:32;;;;;;;9.48;1.80;;;;;;;;;;5011563;28;20042;-82
2022/09/20 04:43:07;;;;;;;12.48;1.80;;;;;;;;;;5012660;28;20456;-82
2022/09/20 04:45:53;;;;;;;13.50;2.10;;;;;;;;;;5012052;28;20048;-82
2022/09/20 04:48:29;;;;;;;13.27;2.08;;;;;;;;;;5010157;28;20045;-82
2022/09/20 04:51:13;;;;;;;11.38;1.92;;;;;;;;;;5013271;28;20096;-81
2022/09/20 04:53:42;;;;;;;13.27;1.90;;;;;;;;;;5004630;28;20438;-82
2022/09/20 04:56:35;;;;;;;12.52;2.10;;;;;;;;;;5003203;28;20388;-82
2022/09/20 04:59:09;;;;;;;11.20;1.83;;;;;;;;;;4995830;28;20045;-82
2022/09/20 05:01:41;;;;;;;12.10;2.20;;;;;;;;;;5003463;28;20408;-82
2022/09/20 05:04:10;;;;;;;8.98;1.92;;;;;;;;;;5005824;28;20609;-82
2022/09/20 05:06:55;;;;;;;12.00;1.95;;;;;;;;;;5009614;28;20053;-82
2022/09/20 05:09:39;;;;;;;10.90;1.63;;;;;;;;;;5011473;28;20038;-81
2022/09/20 05:12:21;;;;;;;10.05;2.13;;;;;;;;;;5012214;28;20042;-82
2022/09/20 05:15:07;;;;;;;5.70;1.60;;;;;;;;;;5008900;28;20062;-81
2022/09/20 05:17:52;;;;;;;12.48;2.08;;;;;;;;;;5010117;28;20046;-81
2022/09/20 05:20:23;;;;;;;9.73;1.75;;;;;;;;;;5011907;28;20046;-82
2022/09/20 05:22:57;;;;;;;13.27;2.25;;;;;;;;;;5020494;28;20097;-82
2022/09/20 05:25:37;;;;;;;10.82;1.92;;;;;;;;;;5006513;28;20065;-81
2022/09/20 05:28:07;;;;;;;10.77;1.92;;;;;;;;;;5007409;28;20116;-82
2022/09/20 05:30:48;;;;;;;13.00;2.10;;;;;;;;;;5001251;28;20050;-82
2022/09/20 05:33:33;;;;;;;9.77;2.10;;;;;;;;;;4999987;28;20432;-81
2022/09/20 05:36:01;;;;;;;12.43;2.00;;;;;;;;;;5000269;28;20046;-82
2022/09/20 05:38:43;;;;;;;9.80;1.90;;;;;;;;;;5009714;28;20058;-82
2022/09/20 05:41:17;;;;;;;10.55;1.75;;;;;;;;;;4998660;28;20510;-82
2022/09/20 05:43:55;;;;;;;11.93;1.75;;;;;;;;;;5014025;28;20092;-82
2022/09/20 05:46:36;;;;;;;11.40;2.20;;;;;;;;;;5011847;28;20056;-82
2022/09/20 05:49:09;;;;;;;9.35;1.90;;;;;;;;;;5015241;28;20045;-82
2022/09/20 05:51:41;;;;;;;14.75;2.35;;;;;;;;;;5013903;28;20033;-82
2022/09/20 05:54:24;;;;;;;13.68;2.35;;;;;;;;;;5000644;28;20486;-82
2022/09/20 05:57:08;;;;;;;8.35;1.75;;;;;;;;;;5007691;28;20042;-82
2022/09/20 05:59:37;;;;;;;10.50;1.63;;;;;;;;;;5016708;28;20038;-82
2022/09/20 06:02:22;;;;;;;11.65;2.03;;;;;;;;;;5008231;28;20053;-82
2022/09/20 06:04:58;;;;;;;10.25;1.85;;;;;;;;;;5010809;28;20114;-81
2022/09/20 06:07:51;;;;;;;8.85;1.90;;;;;;;;;;5043850;28;20065;-80
2022/09/20 06:10:18;;;;;;;12.02;1.45;;;;;;;;;;5014853;28;20073;-82
2022/09/20 06:12:52;;;;;;;11.35;1.98;;;;;;;;;;5013523;28;20038;-81
2022/09/20 06:15:23;;;;;;;7.57;1.50;;;;;;;;;;5012858;28;20091;-81
2022/09/20 06:18:27;;;;;;;11.45;1.77;;;;;;;;;;5046621;28;20411;-81
2022/09/20 06:21:12;;;;;;;8.15;1.35;;;;;;;;;;4974039;28;20050;-82
2022/09/20 06:23:38;;;;;;;9.50;1.52;;;;;;;;;;4974103;28;20050;-82
2022/09/20 06:26:07;;;;;;;9.25;1.50;;;;;;;;;;4973881;28;20062;-82
2022/09/20 06:28:34;;;;;;;5.72;1.00;;;;;;;;;;4972209;28;20489;-82
2022/09/20 06:31:06;;;;;;;8.07;1.10;;;;;;;;;;4972054;28;20138;-82
2022/09/20 06:33:40;;;;;;;6.28;0.95;;;;;;;;;;4961718;28;20058;-83
2022/09/20 06:41:45;;;;;;;8.15;1.10;;;;;;;;;;4973895;28;20159;-82
2022/09/20 06:44:11;;;;;;;5.88;1.30;;;;;;;;;;4965961;28;20105;-83
2022/09/20 06:46:38;;;;;;;9.15;1.30;;;;;;;;;;4969347;28;20055;-83
2022/09/20 06:49:07;;;;;;;7.95;1.25;;;;;;;;;;4959192;28;20055;-83
2022/09/20 06:51:34;;;;;;;8.68;1.63;;;;;;;;;;4995650;28;20058;-83
2022/09/20 06:54:01;;;;;;;8.20;1.23;;;;;;;;;;4994418;28;20042;-82
2022/09/20 06:56:28;;;;;;;8.85;0.82;;;;;;;;;;4999621;28;20042;-84
2022/09/20 06:58:54;;;;;;;8.85;1.52;;;;;;;;;;5017385;28;20054;-83
2022/09/20 07:01:21;;;;;;;6.32;1.20;;;;;;;;;;5015023;28;20562;-82
2022/09/20 07:03:47;;;;;;;7.05;1.20;;;;;;;;;;5012488;28;20049;-83
2022/09/20 07:06:18;;;;;;;5.97;0.80;;;;;;;;;;5010083;28;20050;-83
2022/09/20 07:08:47;;;;;;;10.52;1.48;;;;;;;;;;5012165;28;20057;-83
2022/09/20 07:11:15;;;;;;;7.85;1.08;;;;;;;;;;5009761;28;20042;-83
2022/09/20 07:13:41;;;;;;;6.13;1.20;;;;;;;;;;5011338;28;20145;-82
2022/09/20 07:16:08;;;;;;;8.38;1.48;;;;;;;;;;5005507;28;20519;-82
2022/09/20 07:18:34;;;;;;;10.55;1.35;;;;;;;;;;5013908;28;20045;-84
2022/09/20 07:21:01;;;;;;;7.38;1.13;;;;;;;;;;5014282;28;20072;-84
2022/09/20 07:23:28;;;;;;;8.50;1.25;;;;;;;;;;5015131;28;20492;-83
2022/09/20 07:25:59;;;;;;;7.15;1.52;;;;;;;;;;5013279;28;20118;-83
2022/09/20 07:28:25;;;;;;;;;;;;;;;;;;5003782;28;20056;-83
2022/09/20 07:30:51;;;;;;;5.50;1.20;;;;;;;;;;5044914;28;19926;-83
2022/09/20 07:33:20;;;;;;;6.40;1.30;;;;;;;;;;5010705;28;20125;-83
2022/09/20 07:35:49;;;;;;;6.63;1.10;;;;;;;;;;5011772;28;20081;-83
2022/09/20 07:38:16;;;;;;;8.68;1.50;;;;;;;;;;5012194;28;20081;-83
2022/09/20 07:40:44;;;;;;;7.03;1.25;;;;;;;;;;5025813;28;20061;-82
2022/09/20 07:43:10;;;;;;;7.43;1.27;;;;;;;;;;5014654;28;20038;-83
2022/09/20 07:45:37;;;;;;;9.35;1.20;;;;;;;;;;5010304;28;20479;-83
2022/09/20 07:48:05;;;;;;;7.22;1.60;;;;;;;;;;5006132;28;20145;-83
2022/09/20 07:50:32;;;;;;;6.97;1.52;;;;;;;;;;5010602;28;20550;-83
2022/09/20 07:52:58;;;;;;;7.28;1.23;;;;;;;;;;5011796;28;20147;-84
2022/09/20 07:55:24;;;;;;;11.02;1.58;;;;;;;;;;5013552;28;20069;-84
2022/09/20 07:57:50;;;;;;;7.90;1.20;;;;;;;;;;5011027;28;20094;-84
2022/09/20 08:00:19;;;;;;;7.38;1.40;;;;;;;;;;5012390;28;20121;-83
2022/09/20 08:02:45;;;;;;;8.88;1.30;;;;;;;;;;5012544;28;20446;-84
2022/09/20 08:05:11;;;;;;;6.88;0.95;;;;;;;;;;5010695;28;20045;-83
2022/09/20 08:07:38;;;;;;;5.13;0.90;;;;;;;;;;5007697;28;20514;-83
2022/09/20 08:10:04;;;;;;;7.00;1.05;;;;;;;;;;5011035;28;20050;-83
2022/09/20 08:12:31;;;;;;;7.72;1.23;;;;;;;;;;5010150;28;20053;-84
2022/09/20 08:14:57;;;;;;;5.88;1.00;;;;;;;;;;5013432;28;20114;-84
2022/09/20 08:17:24;;;;;;;5.38;0.88;;;;;;;;;;5013767;28;20038;-85
2022/09/20 08:19:51;;;;;;;5.70;1.10;;;;;;;;;;5009471;28;20045;-85
2022/09/20 08:22:18;;;;;;;6.03;1.00;;;;;;;;;;5008798;28;20536;-84
2022/09/20 08:24:45;;;;;;;7.10;1.05;;;;;;;;;;5008959;28;20507;-87
2022/09/20 08:27:12;;;;;;;6.15;0.98;;;;;;;;;;5009656;28;20042;-85
2022/09/20 08:29:39;;;;;;;5.38;1.10;;;;;;;;;;5043545;28;20183;-84
2022/09/20 08:32:05;;;;;;;5.93;1.00;;;;;;;;;;5004847;28;20050;-84
2022/09/20 08:34:31;;;;;;;6.25;1.02;;;;;;;;;;5003198;28;20053;-85
2022/09/20 08:36:58;;;;;;;7.10;1.17;;;;;;;;;;5003907;28;20044;-84
2022/09/20 08:39:25;;;;;;;6.88;0.90;;;;;;;;;;5040801;28;20042;-81
2022/09/20 08:41:55;;;;;;;6.05;1.17;;;;;;;;;;5009484;28;20054;-86
2022/09/20 08:44:31;;;;;;;5.13;0.90;;;;;;;;;;5009350;28;20042;-86
2022/09/20 08:47:16;;;;;;;7.38;1.10;;;;;;;;;;5012264;28;20050;-87
2022/09/20 08:49:42;;;;;;;6.32;0.70;;;;;;;;;;5048176;28;20145;-87
2022/09/20 08:52:10;;;;;;;4.78;0.80;;;;;;;;;;5011280;28;20045;-83
2022/09/20 08:54:36;;;;;;;4.57;0.80;;;;;;;;;;5010827;28;20095;-84
2022/09/20 08:57:05;;;;;;;3.35;0.70;;;;;;;;;;5011792;28;20399;-85
2022/09/20 08:59:32;;;;;;;4.75;0.73;;;;;;;;;;5016862;28;20180;-85
2022/09/20 09:01:58;;;;;;;5.50;0.80;;;;;;;;;;5009537;28;20092;-85
2022/09/20 09:04:31;;;;;;;5.38;0.95;;;;;;;;;;5008672;28;20092;-85
2022/09/20 09:06:57;;;;;;;4.45;0.80;;;;;;;;;;5003164;28;20065;-86
2022/09/20 09:09:25;;;;;;;4.93;0.82;;;;;;;;;;5016921;28;20621;-85
2022/09/20 09:11:54;;;;;;;3.60;0.70;;;;;;;;;;5010904;28;20049;-84
2022/09/20 09:17:14;;;;;;;6.72;0.80;;;;;;;;;;5012553;28;20054;-84
2022/09/20 09:19:46;;;;;;;7.82;1.33;;;;;;;;;;5013810;28;20093;-84
2022/09/20 09:22:17;;;;;;;6.32;0.85;;;;;;;;;;5013988;28;20493;-84
2022/09/20 09:24:43;;;;;;;8.25;1.20;;;;;;;;;;5041286;28;20079;-84
2022/09/20 09:27:18;;;;;;;10.02;1.20;;;;;;;;;;5015966;28;20045;-83
2022/09/20 09:29:51;;;;;;;5.03;0.90;;;;;;;;;;5024556;28;20371;-82
2022/09/20 09:32:27;;;;;;;6.40;0.82;;;;;;;;;;5014404;28;20042;-83
2022/09/20 09:34:53;;;;;;;6.57;1.00;;;;;;;;;;5015759;28;20407;-84
2022/09/20 09:37:24;;;;;;;8.85;1.20;;;;;;;;;;5013197;28;20391;-84
2022/09/20 09:40:05;;;;;;;7.18;1.00;;;;;;;;;;5010844;28;20038;-84
2022/09/20 09:42:32;;;;;;;6.95;1.20;;;;;;;;;;5006512;28;20042;-84
2022/09/20 09:45:25;;;;;;;6.80;1.10;;;;;;;;;;5015516;28;20057;-84
2022/09/20 09:47:51;;;;;;;5.05;0.90;;;;;;;;;;5014471;28;20054;-84
2022/09/20 09:50:21;;;;;;;7.07;1.30;;;;;;;;;;5046813;28;20052;-85
2022/09/20 09:52:58;;;;;;;5.72;0.80;;;;;;;;;;5015216;28;20910;-84
2022/09/20 09:55:26;;;;;;;5.70;1.02;;;;;;;;;;5031033;28;20053;-84
2022/09/20 09:58:01;;;;;;;7.68;1.08;;;;;;;;;;5012945;28;20119;-84
2022/09/20 10:00:34;;;;;;;6.75;1.02;;;;;;;;;;5000788;28;20076;-85
2022/09/20 10:03:03;;;;;;;6.70;0.82;;;;;;;;;;5010546;28;20045;-84
2022/09/20 10:05:29;;;;;;;4.97;0.73;;;;;;;;;;5013125;28;20450;-84
2022/09/20 10:07:55;;;;;;;3.75;0.82;;;;;;;;;;5012598;28;20046;-83
2022/09/20 10:10:42;;;;;;;5.40;0.85;;;;;;;;;;5013519;28;20487;-84
2022/09/20 10:13:27;;;;;;;5.80;0.80;;;;;;;;;;5041938;28;20057;-85
2022/09/20 10:15:59;;;;;;;7.10;0.93;;;;;;;;;;5007884;28;20479;-83
2022/09/20 10:18:31;;;;;;;6.80;0.80;;;;;;;;;;5005964;28;20042;-84
2022/09/20 10:20:57;;;;;;;5.82;0.80;;;;;;;;;;5013067;28;20054;-84
2022/09/20 10:23:43;;;;;;;8.25;0.93;;;;;;;;;;5012295;28;20430;-84
2022/09/20 10:26:09;;;;;;;5.20;0.93;;;;;;;;;;5013350;28;20404;-84
2022/09/20 10:28:53;;;;;;;10.85;1.17;;;;;;;;;;5013923;28;20644;-83
2022/09/20 10:31:19;;;;;;;9.15;1.00;;;;;;;;;;5011192;28;20046;-82
2022/09/20 10:34:04;;;;;;;7.22;1.13;;;;;;;;;;5010329;28;20461;-83
2022/09/20 10:36:48;;;;;;;8.77;0.90;;;;;;;;;;5014717;28;20127;-83
2022/09/20 10:39:20;;;;;;;8.35;1.00;;;;;;;;;;5010775;28;20116;-84
2022/09/20 10:45:02;;;;;;;5.05;0.80;;;;;;;;;;5009764;28;20435;-83
2022/09/20 10:47:42;;;;;;;5.18;0.80;;;;;;;;;;5013697;28;20050;-84
2022/09/20 10:50:28;;;;;;;7.93;0.98;;;;;;;;;;5008802;28;20065;-87
2022/09/20 10:53:13;;;;;;;7.68;1.10;;;;;;;;;;5007955;28;20038;-85
2022/09/20 10:55:46;;;;;;;6.00;0.80;;;;;;;;;;5011581;28;20042;-84
2022/09/20 10:58:18;;;;;;;5.82;1.00;;;;;;;;;;5020745;28;20426;-87
2022/09/20 11:00:51;;;;;;;5.68;1.08;;;;;;;;;;5007370;28;20034;-87
2022/09/20 11:03:23;;;;;;;6.35;0.90;;;;;;;;;;5013569;28;20129;-85
2022/09/20 11:05:49;;;;;;;4.75;0.70;;;;;;;;;;5014356;28;20117;-86
2022/09/20 11:08:17;;;;;;;6.13;1.00;;;;;;;;;;5014029;28;20104;-85
2022/09/20 11:10:46;;;;;;;6.78;0.88;;;;;;;;;;5011345;28;20046;-86
2022/09/20 11:13:19;;;;;;;8.20;0.80;;;;;;;;;;5012393;28;20060;-86
2022/09/20 11:15:48;;;;;;;5.50;0.70;;;;;;;;;;5013861;28;20038;-86
2022/09/20 11:18:39;;;;;;;5.38;0.80;;;;;;;;;;5003992;28;20569;-85
2022/09/20 11:21:16;;;;;;;4.18;0.90;;;;;;;;;;4999196;28;20437;-86
2022/09/20 11:24:02;;;;;;;4.65;0.73;;;;;;;;;;5011572;28;20104;-86
2022/09/20 11:26:35;;;;;;;4.90;0.75;;;;;;;;;;4998430;28;21207;-84
2022/09/20 11:29:04;;;;;;;4.05;0.77;;;;;;;;;;5010745;28;20034;-84
2022/09/20 11:31:33;;;;;;;4.78;0.80;;;;;;;;;;5013419;28;20376;-84
2022/09/20 11:34:18;;;;;;;4.80;0.80;;;;;;;;;;5007601;28;20062;-85
2022/09/20 11:36:58;;;;;;;5.25;1.00;;;;;;;;;;5001943;28;20538;-85
2022/09/20 11:39:30;;;;;;;6.40;1.88;;;;;;;;;;5021956;28;20053;-83
2022/09/20 11:41:59;;;;;;;8.98;2.67;;;;;;;;;;5010722;28;20133;-84
2022/09/20 11:44:25;;;;;;;8.60;2.63;;;;;;;;;;5013262;28;20046;-84
2022/09/20 11:46:55;;;;;;;6.03;0.80;;;;;;;;;;5017067;28;20525;-84
2022/09/20 11:49:35;;;;;;;4.03;0.93;;;;;;;;;;5007098;28;20100;-85
2022/09/20 11:52:02;;;;;;;4.97;0.80;;;;;;;;;;5012142;28;20050;-85
2022/09/20 11:54:53;;;;;;;5.00;0.70;;;;;;;;;;5011711;28;20514;-85
2022/09/20 11:57:19;;;;;;;5.85;0.70;;;;;;;;;;5010661;28;20127;-85
2022/09/20 11:59:52;;;;;;;5.20;0.77;;;;;;;;;;5006138;28;20408;-85
2022/09/20 12:02:34;;;;;;;7.38;0.93;;;;;;;;;;5008567;28;20054;-84
2022/09/20 12:05:00;;;;;;;4.93;0.70;;;;;;;;;;5013105;28;20096;-85
2022/09/20 12:07:34;;;;;;;6.55;1.02;;;;;;;;;;5013439;28;20365;-84
2022/09/20 12:10:09;;;;;;;5.88;0.98;;;;;;;;;;5010863;28;20060;-84
2022/09/20 12:12:44;;;;;;;6.40;0.70;;;;;;;;;;5005657;28;20081;-84
2022/09/20 12:15:24;;;;;;;6.07;0.90;;;;;;;;;;4994258;28;20046;-82
2022/09/20 12:17:51;;;;;;;6.10;0.77;;;;;;;;;;5018505;28;20045;-84
2022/09/20 12:20:37;;;;;;;5.75;1.27;;;;;;;;;;5014438;28;20528;-84
2022/09/20 12:23:23;;;;;;;5.95;1.00;;;;;;;;;;5009434;28;20136;-84
2022/09/20 12:26:12;;;;;;;5.05;1.08;;;;;;;;;;5007037;28;20050;-84
2022/09/20 12:28:38;;;;;;;9.70;1.33;;;;;;;;;;5011343;28;20068;-84
2022/09/20 12:31:19;;;;;;;7.93;1.20;;;;;;;;;;5011862;28;20128;-83
2022/09/20 12:33:58;;;;;;;10.02;1.45;;;;;;;;;;5006957;28;20050;-83
2022/09/20 12:36:25;;;;;;;9.25;1.40;;;;;;;;;;5003064;28;20045;-84
2022/09/20 12:39:10;;;;;;;9.80;1.08;;;;;;;;;;5010927;28;20037;-83
2022/09/20 12:41:51;;;;;;;6.85;1.13;;;;;;;;;;5011517;28;20056;-83
2022/09/20 12:44:26;;;;;;;7.57;1.27;;;;;;;;;;5006936;28;20073;-83
2022/09/20 12:47:00;;;;;;;7.18;1.20;;;;;;;;;;5010463;28;20454;-84
2022/09/20 12:55:12;;;;;;;5.40;1.00;;;;;;;;;;5006778;28;20042;-82
2022/09/20 12:57:39;;;;;;;8.73;1.17;;;;;;;;;;5010197;28;20518;-84
2022/09/20 13:00:07;;;;;;;8.73;1.08;;;;;;;;;;5025060;28;20478;-84
2022/09/20 13:02:51;;;;;;;7.05;1.30;;;;;;;;;;5011141;28;20046;-83
2022/09/20 13:05:30;;;;;;;7.40;1.35;;;;;;;;;;5011190;28;20037;-82
2022/09/20 13:08:09;;;;;;;8.52;1.17;;;;;;;;;;5007972;28;20521;-83
2022/09/20 13:10:37;;;;;;;7.50;0.95;;;;;;;;;;5018252;28;20487;-83
2022/09/20 13:13:11;;;;;;;8.70;1.10;;;;;;;;;;5007639;28;20093;-83
2022/09/20 13:15:37;;;;;;;10.35;1.27;;;;;;;;;;4998249;28;20077;-83
2022/09/20 13:18:05;;;;;;;7.63;1.70;;;;;;;;;;5011890;28;20049;-82
2022/09/20 13:20:33;;;;;;;11.82;2.28;;;;;;;;;;5022415;28;20562;-82
2022/09/20 13:23:01;;;;;;;12.30;1.83;;;;;;;;;;5011012;28;20045;-83
2022/09/20 13:25:27;;;;;;;7.68;2.20;;;;;;;;;;4997546;28;20495;-83
2022/09/20 13:28:02;;;;;;;8.60;2.05;;;;;;;;;;5010735;28;20048;-82
2022/09/20 13:30:32;;;;;;;9.82;1.92;;;;;;;;;;5012313;28;20053;-82
2022/09/20 13:33:15;;;;;;;8.07;1.50;;;;;;;;;;5012838;28;20058;-82
2022/09/20 13:35:42;;;;;;;7.95;2.78;;;;;;;;;;5013442;28;20546;-83
2022/09/20 13:38:09;;;;;;;12.50;1.58;;;;;;;;;;5017809;28;20069;-82
2022/09/20 13:40:37;;;;;;;5.38;0.95;;;;;;;;;;5014197;28;20038;-83
2022/09/20 13:43:05;;;;;;;6.97;1.15;;;;;;;;;;5011909;28;20125;-83
2022/09/20 13:45:32;;;;;;;7.18;1.00;;;;;;;;;;5015979;28;20425;-83
2022/09/20 13:48:00;;;;;;;7.57;1.00;;;;;;;;;;5011665;28;20077;-82
2022/09/20 13:50:26;;;;;;;7.55;1.23;;;;;;;;;;5011124;28;20100;-83
2022/09/20 13:52:53;;;;;;;10.05;1.38;;;;;;;;;;5010451;28;20562;-83
2022/09/20 13:55:27;;;;;;;7.70;1.20;;;;;;;;;;5041800;28;20096;-83
2022/09/20 13:57:55;;;;;;;9.10;0.85;;;;;;;;;;5012179;28;20093;-83
2022/09/20 14:00:22;;;;;;;4.45;0.90;;;;;;;;;;5011922;28;20472;-83
2022/09/20 14:02:49;;;;;;;7.57;0.88;;;;;;;;;;5012543;28;20049;-83
2022/09/20 14:05:16;;;;;;;7.03;1.00;;;;;;;;;;5015909;28;20094;-83
2022/09/20 14:07:44;;;;;;;6.70;2.50;;;;;;;;;;5015581;28;20526;-83
2022/09/20 14:10:29;;;;;;;8.70;2.83;;;;;;;;;;5014746;28;20053;-83
2022/09/20 14:12:56;;;;;;;7.18;1.55;;;;;;;;;;4996271;28;20125;-83
2022/09/20 14:15:23;;;;;;;8.30;2.10;;;;;;;;;;4997108;28;20082;-82
2022/09/20 14:17:51;;;;;;;5.93;1.30;;;;;;;;;;5012179;28;20688;-83
2022/09/20 14:20:17;;;;;;;6.97;0.93;;;;;;;;;;5015089;28;20057;-84
2022/09/20 14:22:43;;;;;;;4.72;0.77;;;;;;;;;;5030980;28;20056;-83
2022/09/20 14:25:12;;;;;;;5.53;0.70;;;;;;;;;;5035173;28;20107;-82
2022/09/20 14:27:39;;;;;;;6.80;0.90;;;;;;;;;;5028718;28;20117;-83
2022/09/20 14:30:06;;;;;;;5.88;0.85;;;;;;;;;;5014859;28;20529;-84
2022/09/20 14:32:32;;;;;;;4.68;1.00;;;;;;;;;;5028501;28;20450;-82
2022/09/20 14:35:01;;;;;;;5.75;0.80;;;;;;;;;;5021279;28;20042;-83
2022/09/20 14:37:28;;;;;;;5.95;1.00;;;;;;;;;;5014032;28;20462;-82
2022/09/20 14:39:55;;;;;;;6.40;0.85;;;;;;;;;;5014917;28;20130;-83
2022/09/20 14:42:33;;;;;;;4.80;0.70;;;;;;;;;;5027660;28;20470;-82
2022/09/20 14:45:00;;;;;;;4.72;0.80;;;;;;;;;;5018451;28;20050;-82
2022/09/20 14:47:27;;;;;;;6.15;0.75;;;;;;;;;;5013223;28;20046;-83
2022/09/20 14:49:53;;;;;;;6.82;1.02;;;;;;;;;;5026948;28;20045;-84
2022/09/20 14:52:31;;;;;;;8.57;1.27;;;;;;;;;;5034573;28;20090;-82
2022/09/20 14:55:01;;;;;;;5.63;1.55;;;;;;;;;;5035009;28;20045;-81
2022/09/20 14:57:27;;;;;;;7.43;1.23;;;;;;;;;;5033244;28;20495;-83
2022/09/20 14:59:56;;;;;;;6.32;1.00;;;;;;;;;;5030132;28;20053;-83
2022/09/20 15:02:24;;;;;;;4.30;1.00;;;;;;;;;;5012166;28;20068;-83
2022/09/20 15:04:59;;;;;;;7.70;0.82;;;;;;;;;;5013507;28;20046;-82
2022/09/20 15:07:25;;;;;;;4.85;1.50;;;;;;;;;;5013973;28;20412;-81
2022/09/20 15:09:51;;;;;;;4.78;0.90;;;;;;;;;;5027063;28;20097;-82
2022/09/20 15:12:18;;;;;;;5.97;1.20;;;;;;;;;;5034929;28;20045;-82
2022/09/20 15:14:45;;;;;;;7.05;2.25;;;;;;;;;;5034158;28;20041;-81
2022/09/20 15:17:20;;;;;;;5.72;0.93;;;;;;;;;;5013981;28;20500;-82
2022/09/20 15:19:47;;;;;;;6.55;1.02;;;;;;;;;;5025523;28;20049;-81
2022/09/20 15:22:13;;;;;;;6.68;1.20;;;;;;;;;;5030839;28;20038;-81
2022/09/20 15:24:40;;;;;;;4.32;0.80;;;;;;;;;;5014738;28;20042;-82
2022/09/20 15:27:06;;;;;;;4.07;0.88;;;;;;;;;;5014957;28;20042;-81
2022/09/20 15:29:32;;;;;;;5.35;0.75;;;;;;;;;;5023588;28;20049;-82